Terminal Aerodrome Forecast
Issued by NWS

Current Version | Previous Version | Graphics & Text | Print | Product List | Glossary On
Versions: 1 2 3 4 5 6 7 8 9 10 11 12 13 14 15 16 17 18 19 20 21
000
FTUS41 KPBZ 270627 AAB
TAFHLG
TAF AMD
KHLG 270627Z 2706/2806 00000KT 3SM BR BKN200
      TEMPO 2706/2708 1SM BR
     FM270800 00000KT 1SM BR BKN200
     FM271400 02005KT P6SM BKN035
     FM272100 01005KT P6SM SCT050=

USA.gov is the U.S. government's official web portal to all federal, state and local government web resources and services.